Santa Ana Del Yacuma Airport

Airport
ICAO code: 
SLSA
IATA Code: 
SBL
Summary
ICAO Region: 
CARSAM
Territory: 
Location: 
Santa Ana del Yacuma, El Beni
Serving: 
Santa Ana
Elevation: 
472 ft
Coordinates: 
Aerial View: 
13° 45' 43.949" S, 65° 26' 6.569" W
Metar
Observation
SLSA 182000Z 27012KT 5000 -SHRA BKN017 FEW023CB BKN200 26/25 Q1009
Station
Santa Ana
Date/Time
2022-01-18 20:00:00
Wind direction
270°
Wind speed
12 kts
Lowest cloud amount
broken clouds
Temperature
26°C
Dew point
25°C
Humidity
94%
QNH
1009 hPa
Weather condition
n/a

Airport serving the town of Santa Ana del Yacuma in the Beni Department of Bolivia. The runway is just south of the town.

Climatology

Monsoon climate (Köppen climate classification Am).

Runways

Designator Length Width Surface Rops
14/32 1528 21 ASP No/No
Airport map: 
Aerial View: 

SKYbrary Partners:

Safety knowledge contributed by: